createdAt,value
2022-12-01T00:05:02.534Z,76.60
2022-12-01T00:10:23.883Z,76.43
2022-12-01T00:15:29.382Z,78.72
2022-12-01T00:20:34.284Z,78.85
2022-12-01T00:25:37.193Z,78.50
2022-12-01T00:30:41.304Z,79.28
2022-12-01T00:35:46.628Z,79.53
2022-12-01T00:40:50.907Z,78.90
2022-12-01T00:45:56.236Z,82.57
2022-12-01T00:50:59.373Z,75.22
2022-12-01T00:56:02.184Z,75.07
2022-12-01T01:01:06.709Z,76.72
2022-12-01T01:06:12.427Z,78.30
2022-12-01T01:11:15.230Z,80.00
2022-12-01T01:16:22.099Z,77.15
2022-12-01T01:21:26.159Z,80.18
2022-12-01T01:26:30.848Z,77.50
2022-12-01T01:31:36.488Z,80.15
2022-12-01T01:36:39.222Z,80.18
2022-12-01T01:41:41.967Z,82.25
2022-12-01T01:46:46.208Z,83.07
2022-12-01T01:51:52.236Z,86.90
2022-12-01T01:56:58.503Z,81.18
2022-12-01T02:02:06.121Z,80.15
2022-12-01T02:07:09.526Z,88.53
2022-12-01T02:12:26.992Z,83.68
2022-12-01T02:17:41.905Z,82.97
2022-12-01T02:22:53.997Z,82.00
2022-12-01T02:28:17.119Z,82.72
2022-12-01T02:33:26.463Z,85.22
2022-12-01T02:38:32.015Z,87.78
2022-12-01T02:43:42.039Z,91.07
2022-12-01T02:48:50.543Z,78.15
2022-12-01T02:58:56.683Z,87.88
2022-12-01T03:04:21.232Z,86.60
2022-12-01T03:09:35.426Z,81.40
2022-12-01T03:14:43.646Z,87.30
2022-12-01T03:19:51.360Z,85.88
2022-12-01T03:24:56.978Z,93.38
2022-12-01T03:30:02.140Z,83.30
2022-12-01T03:35:10.929Z,89.40
2022-12-01T03:40:17.906Z,88.30
2022-12-01T03:45:25.563Z,89.00
2022-12-01T03:50:39.940Z,86.47
2022-12-01T03:55:46.786Z,96.90
2022-12-01T04:00:53.228Z,88.07
2022-12-01T04:05:58.090Z,89.90
2022-12-01T04:11:21.042Z,95.35
2022-12-01T04:16:23.853Z,85.60
2022-12-01T04:21:28.133Z,91.65
2022-12-01T04:26:33.190Z,93.65
2022-12-01T04:31:36.088Z,90.90
2022-12-01T04:36:40.306Z,90.43
2022-12-01T04:41:43.142Z,97.10
2022-12-01T04:46:45.990Z,91.55
2022-12-01T04:51:50.537Z,96.88
2022-12-01T04:56:53.315Z,92.97
2022-12-01T05:01:56.174Z,90.53
2022-12-01T05:07:00.540Z,87.25
2022-12-01T05:12:03.325Z,92.50
2022-12-01T05:17:06.065Z,91.88
2022-12-01T05:22:10.184Z,85.05
2022-12-01T05:27:12.989Z,96.07
2022-12-01T05:32:15.725Z,89.63
2022-12-01T05:37:19.784Z,88.72
2022-12-01T05:42:22.533Z,94.85
2022-12-01T05:47:25.291Z,86.70
2022-12-01T05:52:29.408Z,89.65
2022-12-01T05:57:32.670Z,91.85
2022-12-01T06:02:35.476Z,95.95
2022-12-01T06:07:40.401Z,104.35
2022-12-01T06:12:43.547Z,102.25
2022-12-01T06:17:46.347Z,100.63
2022-12-01T06:22:50.482Z,97.60
2022-12-01T06:29:11.351Z,97.82
2022-12-01T06:34:23.801Z,100.35
2022-12-01T06:46:33.180Z,90.68
2022-12-01T06:51:38.320Z,92.30
2022-12-01T06:56:43.194Z,91.45
2022-12-01T07:01:46.207Z,93.03
2022-12-01T07:06:49.048Z,90.82
2022-12-01T07:11:53.269Z,87.25
2022-12-01T07:16:56.195Z,84.38
2022-12-01T07:21:58.956Z,83.18
2022-12-01T07:27:03.100Z,89.68
2022-12-01T07:32:06.406Z,89.72
2022-12-01T07:37:11.059Z,85.75
2022-12-01T07:42:15.124Z,94.35
2022-12-01T07:47:17.883Z,85.68
2022-12-01T07:52:21.287Z,87.07
2022-12-01T07:57:25.424Z,91.00
2022-12-01T08:02:28.275Z,85.75
2022-12-01T08:07:31.081Z,85.70
2022-12-01T08:12:35.254Z,93.18
2022-12-01T08:17:37.959Z,89.47
2022-12-01T08:22:40.673Z,88.70
2022-12-01T08:27:44.796Z,84.45
2022-12-01T08:32:47.616Z,82.95
2022-12-01T08:37:52.831Z,76.20
2022-12-01T08:42:57.204Z,79.65
2022-12-01T08:48:00.049Z,82.63
2022-12-01T08:53:02.895Z,73.50
2022-12-01T08:58:07.008Z,79.18
2022-12-01T09:03:15.314Z,79.40
2022-12-01T09:08:33.965Z,72.28
2022-12-01T09:13:39.839Z,75.60
2022-12-01T09:18:45.454Z,77.88
2022-12-01T09:23:50.836Z,71.05
2022-12-01T09:28:57.161Z,71.47
2022-12-01T09:34:02.354Z,65.75
2022-12-01T09:39:05.997Z,67.25
2022-12-01T09:44:20.572Z,65.32
2022-12-01T09:49:31.326Z,60.08
2022-12-01T09:54:53.180Z,59.85
2022-12-01T10:00:13.596Z,61.22
2022-12-01T10:05:19.863Z,71.90
2022-12-01T10:10:28.633Z,63.40
2022-12-01T10:15:49.063Z,67.60
2022-12-01T10:20:59.952Z,70.28
2022-12-01T10:26:14.063Z,69.95
2022-12-01T10:31:21.295Z,67.82
2022-12-01T10:36:24.629Z,74.30
2022-12-01T10:41:31.831Z,81.43
2022-12-01T10:46:41.874Z,64.90
2022-12-01T10:51:51.347Z,69.90
2022-12-01T10:56:57.248Z,71.63
2022-12-01T11:02:03.048Z,80.78
2022-12-01T11:07:06.124Z,74.82
2022-12-01T11:12:16.812Z,72.25
2022-12-01T11:17:34.171Z,71.40
2022-12-01T11:22:36.904Z,62.47
2022-12-01T11:27:51.684Z,58.47
2022-12-01T11:32:57.944Z,63.28
2022-12-01T11:43:31.063Z,72.90
2022-12-01T11:48:36.578Z,68.33
2022-12-01T11:53:41.836Z,73.00
2022-12-01T11:58:46.191Z,65.28
2022-12-01T12:03:57.708Z,73.95
2022-12-01T12:09:24.197Z,91.97
2022-12-01T12:14:41.523Z,93.82
2022-12-01T12:20:25.159Z,84.18
2022-12-01T12:25:40.969Z,81.05
2022-12-01T12:30:50.857Z,77.03
2022-12-01T12:36:03.530Z,65.18
2022-12-01T12:41:17.871Z,57.25
2022-12-01T12:46:28.294Z,63.55
2022-12-01T12:51:37.235Z,58.97
2022-12-01T12:56:44.667Z,48.08
2022-12-01T13:01:53.761Z,49.85
2022-12-01T13:07:03.257Z,54.45
2022-12-01T13:12:15.586Z,50.28
2022-12-01T13:17:22.467Z,47.65
2022-12-01T13:22:33.136Z,59.17
2022-12-01T13:27:40.767Z,52.45
2022-12-01T13:32:43.947Z,51.97
2022-12-01T13:37:49.160Z,50.78
2022-12-01T13:43:08.846Z,59.45
2022-12-01T13:48:29.834Z,54.83
2022-12-01T13:53:36.583Z,52.70
2022-12-01T13:58:46.229Z,50.22
2022-12-01T14:03:57.081Z,47.65
2022-12-01T14:09:03.074Z,43.15
2022-12-01T14:14:14.215Z,46.50
2022-12-01T14:19:35.382Z,46.38
2022-12-01T14:24:43.674Z,40.17
2022-12-01T14:29:46.448Z,42.58
2022-12-01T14:35:11.303Z,39.53
2022-12-01T14:40:30.038Z,39.42
2022-12-01T14:50:46.428Z,42.95
2022-12-01T14:55:56.196Z,45.38
2022-12-01T15:01:09.874Z,46.70
2022-12-01T15:06:18.702Z,46.13
2022-12-01T15:11:25.496Z,43.38
2022-12-01T15:16:31.980Z,41.72
2022-12-01T15:21:34.944Z,40.65
2022-12-01T15:26:47.917Z,38.17
2022-12-01T15:31:53.952Z,42.53
2022-12-01T15:36:58.082Z,42.13
2022-12-01T15:42:04.423Z,46.60
2022-12-01T15:47:33.421Z,39.50
2022-12-01T16:02:53.795Z,38.47
2022-12-01T16:08:13.868Z,43.67
2022-12-01T16:13:40.881Z,47.67
2022-12-01T16:18:54.560Z,39.90
2022-12-01T16:24:05.359Z,46.92
2022-12-01T16:29:20.488Z,44.75
2022-12-01T16:34:45.128Z,44.00
2022-12-01T16:39:48.075Z,48.33
2022-12-01T16:44:53.400Z,49.97
2022-12-01T16:49:56.391Z,53.45
2022-12-01T16:54:59.778Z,47.30
2022-12-01T17:00:14.668Z,57.30
2022-12-01T17:05:17.739Z,56.20
2022-12-01T17:10:21.361Z,52.88
2022-12-01T17:15:27.424Z,53.20
2022-12-01T17:20:30.252Z,52.38
2022-12-01T17:25:33.982Z,61.47
2022-12-01T17:30:38.599Z,68.43
2022-12-01T17:35:41.794Z,75.97
2022-12-01T17:40:44.633Z,71.60
2022-12-01T17:45:48.879Z,62.13
2022-12-01T17:50:51.792Z,66.50
2022-12-01T17:55:54.674Z,58.53
2022-12-01T18:00:58.912Z,68.25
2022-12-01T18:06:03.046Z,76.20
2022-12-01T18:11:11.699Z,63.03
2022-12-01T18:16:18.424Z,65.22
2022-12-01T18:21:23.562Z,66.70
2022-12-01T18:26:27.516Z,63.15
2022-12-01T18:31:33.009Z,65.75
2022-12-01T18:36:38.849Z,59.95
2022-12-01T18:41:41.808Z,63.70
2022-12-01T18:46:46.203Z,68.60
2022-12-01T18:51:49.196Z,59.90
2022-12-01T18:56:53.125Z,54.78
2022-12-01T19:08:05.153Z,64.30
2022-12-01T19:13:08.186Z,54.00
2022-12-01T19:18:15.367Z,55.97
2022-12-01T19:23:18.249Z,56.60
2022-12-01T19:28:21.122Z,55.03
2022-12-01T19:33:28.091Z,63.17
2022-12-01T19:38:31.216Z,57.47
2022-12-01T19:43:35.981Z,61.25
2022-12-01T19:48:40.466Z,60.17
2022-12-01T19:53:43.424Z,56.95
2022-12-01T19:58:46.631Z,52.47
2022-12-01T20:03:55.758Z,57.00
2022-12-01T20:09:00.512Z,57.80
2022-12-01T20:14:04.949Z,54.55
2022-12-01T20:19:09.592Z,63.15
2022-12-01T20:24:14.398Z,61.20
2022-12-01T20:29:20.642Z,57.28
2022-12-01T20:34:28.222Z,65.15
2022-12-01T20:39:44.445Z,65.73
2022-12-01T20:44:48.652Z,53.90
2022-12-01T20:49:58.140Z,66.60
2022-12-01T20:55:01.477Z,56.47
2022-12-01T21:00:05.474Z,61.20
2022-12-01T21:05:09.959Z,54.25
2022-12-01T21:10:18.483Z,59.80
2022-12-01T21:15:27.398Z,62.15
2022-12-01T21:20:33.782Z,58.27
2022-12-01T21:25:38.879Z,60.08
2022-12-01T21:30:41.845Z,52.55
2022-12-01T21:35:46.038Z,63.30
2022-12-01T21:40:49.471Z,68.45
2022-12-01T21:45:56.840Z,58.35
2022-12-01T21:51:03.646Z,60.28
2022-12-01T21:56:11.548Z,56.20
2022-12-01T22:01:20.540Z,53.47
2022-12-01T22:06:30.846Z,55.72
2022-12-01T22:11:34.174Z,60.92
2022-12-01T22:16:41.069Z,58.97
2022-12-01T22:21:47.963Z,61.22
2022-12-01T22:26:54.560Z,57.20
2022-12-01T22:32:26.376Z,61.42
2022-12-01T22:37:37.673Z,57.90
2022-12-01T22:42:41.524Z,60.92
2022-12-01T22:47:44.287Z,57.35
2022-12-01T22:52:52.096Z,59.80
2022-12-01T22:57:55.864Z,62.22
2022-12-01T23:03:00.197Z,64.20
2022-12-01T23:08:10.670Z,49.05
2022-12-01T23:13:16.670Z,46.42
2022-12-01T23:18:22.167Z,57.25
2022-12-01T23:23:29.429Z,47.47
2022-12-01T23:28:32.556Z,56.80
2022-12-01T23:33:36.391Z,44.92
2022-12-01T23:38:43.683Z,54.25
2022-12-01T23:43:46.835Z,58.00
2022-12-01T23:48:53.342Z,53.75
2022-12-01T23:53:59.478Z,58.63
2022-12-01T23:59:02.667Z,60.50
